Farmington, Washington
Current Conditions -  °F | °C
As of 2:53 PM on Sunday 21 Dec 2014 (Local Time) from KPUW Reporting Station
Broken Clouds Broken Clouds  
Wind Chill: 40°   Ceiling: 3500
Heat Index: 46°   Visibility: 10mi
Dew Point: 39°   Wind: 15mph
Humidity: 76%   Direction: 260°W
Pressure: 29.91"   Gusts: 23mph
Location:  47.09°N, 117.04°W
Report Text: KPUW 212253Z AUTO 26013G20KT 10SM FEW025 BKN035 08/04 A2991 RMK AO2 SLP135 T00780039
Loading
Personal Weather Stations






























Interactive Weather Map New forecast layout! Learn more

10-Day Weather Forecast

Advertisements
Track Severe Weather on mobile